Time;durP1;ratioP1;P1;durP2;ratioP2;P2;SDS_P1;SDS_P2;PMS_P1;PMS_P2;Temp;Humidity;BMP_temperature;BMP_pressure;BME280_temperature;BME280_humidity;BME280_pressure;Samples;Min_cycle;Max_cycle;Signal;HPM_P1;HPM_P2
2021/08/14 00:00:18;;;;;;;10.13;4.10;;;;;14.40;101752.00;;;;9872157;29;20227;-79
2021/08/14 00:05:20;;;;;;;10.53;4.73;;;;;14.40;101752.00;;;;9856990;29;20211;-79
2021/08/14 00:10:21;;;;;;;10.20;4.17;;;;;14.40;101745.00;;;;9900905;29;20211;-79
2021/08/14 00:15:23;;;;;;;11.77;4.33;;;;;14.40;101747.00;;;;9915579;29;20253;-79
2021/08/14 00:20:25;;;;;;;9.47;4.07;;;;;14.40;101756.00;;;;9899700;29;20220;-79
2021/08/14 00:25:27;;;;;;;12.33;3.80;;;;;14.40;101755.00;;;;9899820;29;20241;-79
2021/08/14 00:30:29;;;;;;;7.97;3.73;;;;;14.30;101755.00;;;;9900429;29;20212;-79
2021/08/14 00:35:31;;;;;;;14.30;4.90;;;;;14.20;101748.00;;;;9884403;29;20239;-79
2021/08/14 00:40:33;;;;;;;16.73;4.10;;;;;14.10;101748.00;;;;9885233;29;20230;-79
2021/08/14 00:45:42;;;;;;;9.80;3.47;;;;;14.00;101734.00;;;;9915268;29;20215;-79
2021/08/14 00:51:07;;;;;;;7.97;3.93;;;;;13.90;101731.00;;;;9886907;29;20207;-78
2021/08/14 00:56:08;;;;;;;11.23;4.70;;;;;13.90;101728.00;;;;9899028;29;20687;-79
2021/08/14 01:01:10;;;;;;;13.37;4.27;;;;;13.80;101732.00;;;;9914116;29;20227;-79
2021/08/14 01:06:16;;;;;;;10.60;4.10;;;;;13.80;101729.00;;;;9884499;29;20271;-78
2021/08/14 01:11:18;;;;;;;10.77;3.87;;;;;13.80;101718.00;;;;9898173;29;20583;-79
2021/08/14 01:16:20;;;;;;;9.37;4.17;;;;;13.80;101721.00;;;;9883899;29;20258;-79
2021/08/14 01:21:24;;;;;;;14.27;4.70;;;;;13.80;101720.00;;;;9884530;29;20775;-78
2021/08/14 01:26:26;;;;;;;13.00;4.53;;;;;13.80;101722.00;;;;9929091;29;20255;-78
2021/08/14 01:31:28;;;;;;;8.53;3.80;;;;;13.80;101727.00;;;;9921760;29;20682;-79
2021/08/14 01:36:30;;;;;;;8.27;3.87;;;;;13.80;101714.00;;;;9920881;29;21007;-79
2021/08/14 01:41:31;;;;;;;12.10;3.77;;;;;13.80;101721.00;;;;9930446;29;20257;-79
2021/08/14 01:46:37;;;;;;;14.37;4.43;;;;;13.80;101717.00;;;;9869829;29;20215;-79
2021/08/14 01:51:38;;;;;;;8.67;4.00;;;;;13.80;101711.00;;;;9898615;29;20207;-78
2021/08/14 01:56:41;;;;;;;13.40;3.70;;;;;13.80;101712.00;;;;9875810;30;20572;-79
2021/08/14 02:01:43;;;;;;;11.33;3.87;;;;;13.80;101711.00;;;;9904235;29;20226;-79
2021/08/14 02:06:45;;;;;;;10.30;4.23;;;;;13.80;101692.00;;;;9884267;29;20219;-79
2021/08/14 02:11:47;;;;;;;13.27;4.00;;;;;13.70;101699.00;;;;9886571;29;20213;-79
2021/08/14 02:16:49;;;;;;;10.27;3.73;;;;;13.70;101699.00;;;;9905188;29;20206;-79
2021/08/14 02:21:51;;;;;;;11.83;4.27;;;;;13.70;101700.00;;;;9904966;29;20593;-79
2021/08/14 02:26:52;;;;;;;14.83;4.23;;;;;13.60;101694.00;;;;9908914;29;20672;-79
2021/08/14 02:31:54;;;;;;;13.57;4.17;;;;;13.50;101700.00;;;;9920600;29;20219;-79
2021/08/14 02:36:56;;;;;;;11.10;4.40;;;;;13.40;101689.00;;;;9876045;29;20262;-78
2021/08/14 02:41:58;;;;;;;9.70;4.17;;;;;13.40;101688.00;;;;9898335;29;20219;-78
2021/08/14 02:47:01;;;;;;;14.73;4.00;;;;;13.30;101676.00;;;;9876231;29;20726;-79
2021/08/14 02:52:03;;;;;;;13.87;4.67;;;;;13.30;101680.00;;;;9875345;29;20216;-79
2021/08/14 02:57:05;;;;;;;14.40;4.10;;;;;13.30;101679.00;;;;9904082;29;20219;-78
2021/08/14 03:02:07;;;;;;;10.73;4.10;;;;;13.30;101680.00;;;;9903926;29;20947;-79
2021/08/14 03:07:09;;;;;;;13.07;4.30;;;;;13.40;101664.00;;;;9888840;29;20211;-79
2021/08/14 03:12:11;;;;;;;13.10;4.23;;;;;13.40;101671.00;;;;9888940;29;20219;-79
2021/08/14 03:17:14;;;;;;;16.77;4.43;;;;;13.40;101668.00;;;;9918655;29;20211;-79
2021/08/14 03:22:16;;;;;;;12.70;4.63;;;;;13.40;101665.00;;;;9873605;30;20240;-79
2021/08/14 03:27:17;;;;;;;15.23;4.73;;;;;13.50;101663.00;;;;9889334;29;20219;-79
2021/08/14 03:32:19;;;;;;;11.87;4.77;;;;;13.40;101652.00;;;;9888521;29;20234;-79
2021/08/14 03:37:21;;;;;;;11.33;4.50;;;;;13.40;101648.00;;;;9919117;29;20268;-79
2021/08/14 03:42:23;;;;;;;13.40;4.30;;;;;13.40;101658.00;;;;9916589;29;20235;-79
2021/08/14 03:47:25;;;;;;;12.00;4.13;;;;;13.40;101665.00;;;;9902597;29;20208;-79
2021/08/14 03:52:28;;;;;;;10.23;4.10;;;;;13.30;101655.00;;;;9902267;29;20615;-78
2021/08/14 03:57:30;;;;;;;14.47;4.57;;;;;13.30;101659.00;;;;9872946;29;20569;-79
2021/08/14 04:02:31;;;;;;;11.30;3.70;;;;;13.20;101654.00;;;;9901003;29;20708;-79
2021/08/14 04:07:35;;;;;;;16.57;5.03;;;;;13.20;101653.00;;;;9901384;29;20208;-78
2021/08/14 04:12:36;;;;;;;12.13;4.47;;;;;13.20;101653.00;;;;9900997;29;20208;-78
2021/08/14 04:17:38;;;;;;;12.83;4.37;;;;;13.20;101634.00;;;;9886945;29;20208;-78
2021/08/14 04:22:40;;;;;;;14.47;4.33;;;;;13.30;101640.00;;;;9884272;29;20236;-79
2021/08/14 04:27:42;;;;;;;13.47;4.67;;;;;13.30;101636.00;;;;9834013;30;20205;-79
2021/08/14 04:32:45;;;;;;;11.47;4.00;;;;;13.40;101634.00;;;;9846824;30;20277;-78
2021/08/14 04:37:47;;;;;;;15.60;4.60;;;;;13.40;101638.00;;;;9848151;30;20232;-79
2021/08/14 04:42:49;;;;;;;10.80;4.30;;;;;13.50;101625.00;;;;9863763;30;20689;-78
2021/08/14 04:47:52;;;;;;;13.33;4.40;;;;;13.50;101647.00;;;;9897526;29;20219;-79
2021/08/14 04:52:53;;;;;;;16.93;4.40;;;;;13.50;101661.00;;;;9900947;29;20568;-78
2021/08/14 04:57:56;;;;;;;17.07;5.20;;;;;13.60;101654.00;;;;9913800;29;20740;-78
2021/08/14 05:02:57;;;;;;;15.03;4.80;;;;;13.70;101654.00;;;;9885443;29;20300;-79
2021/08/14 05:08:00;;;;;;;15.37;4.80;;;;;13.80;101659.00;;;;9899572;29;20200;-79
2021/08/14 05:13:04;;;;;;;11.20;4.27;;;;;13.90;101663.00;;;;9899704;29;20212;-78
2021/08/14 05:18:06;;;;;;;20.90;5.13;;;;;14.10;101664.00;;;;9884258;29;20203;-78
2021/08/14 05:23:08;;;;;;;15.33;4.53;;;;;14.30;101672.00;;;;9898911;29;20230;-79
2021/08/14 05:28:09;;;;;;;15.20;4.73;;;;;14.60;101680.00;;;;9893690;29;20292;-79
2021/08/14 05:33:11;;;;;;;15.30;4.30;;;;;15.30;101682.00;;;;9845200;30;20623;-79
2021/08/14 05:38:14;;;;;;;11.33;4.43;;;;;15.50;101681.00;;;;9830339;30;20254;-79
2021/08/14 05:43:16;;;;;;;18.50;4.53;;;;;15.90;101690.00;;;;9846209;30;20236;-80
2021/08/14 05:48:18;;;;;;;12.70;4.17;;;;;16.20;101687.00;;;;9852325;30;20204;-80
2021/08/14 05:53:20;;;;;;;14.73;4.77;;;;;16.70;101681.00;;;;9838710;30;20379;-80
2021/08/14 05:58:22;;;;;;;16.30;4.60;;;;;17.10;101685.00;;;;9866660;30;20257;-79
2021/08/14 06:03:32;;;;;;;15.67;5.13;;;;;17.70;101687.00;;;;9837421;30;20315;-80
2021/08/14 06:08:34;;;;;;;14.13;4.85;;;;;18.30;101681.00;;;;9851748;30;20201;-80
2021/08/14 06:13:36;;;;;;;13.90;4.88;;;;;18.90;101682.00;;;;9851909;30;20231;-80
2021/08/14 06:18:41;;;;;;;14.75;4.57;;;;;19.40;101678.00;;;;9851023;30;20211;-79
2021/08/14 06:23:43;;;;;;;16.67;5.60;;;;;19.80;101669.00;;;;9891573;29;20588;-79
2021/08/14 06:28:44;;;;;;;17.55;6.38;;;;;20.10;101669.00;;;;9902840;29;20215;-80
2021/08/14 06:33:46;;;;;;;16.35;4.28;;;;;20.30;101667.00;;;;9887651;29;20204;-79
2021/08/14 06:38:48;;;;;;;14.50;4.72;;;;;20.50;101671.00;;;;9903133;29;20768;-80
2021/08/14 06:43:50;;;;;;;12.25;4.20;;;;;20.80;101660.00;;;;9902748;29;20239;-81
2021/08/14 06:48:52;;;;;;;15.13;4.43;;;;;20.90;101662.00;;;;9886568;29;20212;-81
2021/08/14 06:53:54;;;;;;;12.27;4.05;;;;;21.00;101668.00;;;;9902692;29;20216;-82
2021/08/14 06:58:56;;;;;;;12.15;4.90;;;;;21.20;101671.00;;;;9902810;29;20583;-81
2021/08/14 07:03:57;;;;;;;11.50;4.07;;;;;21.50;101669.00;;;;9902166;29;20231;-81
2021/08/14 07:08:59;;;;;;;12.00;4.28;;;;;21.90;101682.00;;;;9879227;29;20211;-81
2021/08/14 07:14:05;;;;;;;16.20;5.32;;;;;22.10;101672.00;;;;9874116;29;20262;-81
2021/08/14 07:19:07;;;;;;;13.90;4.60;;;;;22.00;101682.00;;;;9865984;29;20219;-80
2021/08/14 07:24:09;;;;;;;14.07;5.10;;;;;21.90;101683.00;;;;9895938;30;20807;-80
2021/08/14 07:29:11;;;;;;;19.38;5.10;;;;;21.90;101679.00;;;;9903088;29;20218;-80
2021/08/14 07:34:13;;;;;;;11.60;4.50;;;;;22.00;101680.00;;;;9890682;29;20211;-80
2021/08/14 07:39:16;;;;;;;11.90;4.75;;;;;22.30;101680.00;;;;9898687;29;20218;-81
2021/08/14 07:44:18;;;;;;;16.13;5.05;;;;;22.70;101680.00;;;;9904041;29;20630;-81
2021/08/14 07:49:22;;;;;;;12.13;4.82;;;;;22.90;101676.00;;;;9901115;29;20695;-81
2021/08/14 07:54:24;;;;;;;10.07;4.57;;;;;23.30;101678.00;;;;9899774;29;20219;-81
2021/08/14 07:59:26;;;;;;;16.23;4.97;;;;;23.60;101677.00;;;;9900270;29;20208;-80
2021/08/14 08:04:28;;;;;;;12.45;5.22;;;;;24.10;101681.00;;;;9887271;29;20246;-81
2021/08/14 08:09:30;;;;;;;14.07;4.22;;;;;24.50;101679.00;;;;9861158;30;20212;-81
2021/08/14 08:14:32;;;;;;;13.77;4.60;;;;;24.70;101668.00;;;;9862920;30;20216;-81
2021/08/14 08:19:34;;;;;;;15.07;4.90;;;;;25.10;101668.00;;;;9878584;29;20220;-81
2021/08/14 08:24:36;;;;;;;12.82;4.50;;;;;25.10;101672.00;;;;9869478;29;20270;-81
2021/08/14 08:29:38;;;;;;;13.95;4.78;;;;;25.40;101663.00;;;;9884887;29;20222;-81
2021/08/14 08:34:40;;;;;;;15.68;5.25;;;;;25.70;101657.00;;;;9882380;29;20318;-82
2021/08/14 08:39:42;;;;;;;11.63;4.32;;;;;25.80;101662.00;;;;9896862;29;20235;-82
2021/08/14 08:44:44;;;;;;;13.25;4.32;;;;;26.00;101662.00;;;;9884005;29;20238;-81
2021/08/14 08:49:54;;;;;;;11.32;4.20;;;;;26.10;101664.00;;;;9886855;29;20721;-82
2021/08/14 08:54:56;;;;;;;9.27;3.78;;;;;26.60;101669.00;;;;9868126;29;20211;-81
2021/08/14 08:59:58;;;;;;;11.48;4.43;;;;;27.10;101658.00;;;;9883202;29;20214;-81
2021/08/14 09:05:10;;;;;;;11.57;4.82;;;;;27.40;101658.00;;;;9896244;29;20235;-82
2021/08/14 09:10:24;;;;;;;10.77;3.90;;;;;27.60;101658.00;;;;9846195;30;20220;-82
2021/08/14 09:15:29;;;;;;;11.60;4.40;;;;;27.60;101660.00;;;;9847582;29;20219;-82
2021/08/14 09:20:34;;;;;;;12.07;4.13;;;;;28.00;101659.00;;;;9881625;29;20306;-82
2021/08/14 09:25:56;;;;;;;12.20;4.43;;;;;28.00;101655.00;;;;9895086;29;20231;-82
2021/08/14 09:31:01;;;;;;;11.35;4.78;;;;;27.80;101655.00;;;;9895837;29;20212;-82
2021/08/14 09:36:06;;;;;;;11.40;4.38;;;;;28.20;101656.00;;;;9875524;30;20238;-81
2021/08/14 09:41:22;;;;;;;11.40;4.40;;;;;28.10;101662.00;;;;9833456;30;20212;-81
2021/08/14 09:46:41;;;;;;;9.95;4.90;;;;;28.30;101649.00;;;;9864188;29;20245;-81
2021/08/14 09:51:43;;;;;;;10.77;4.57;;;;;28.60;101658.00;;;;9884080;29;20515;-82
2021/08/14 09:56:44;;;;;;;8.77;3.95;;;;;28.70;101647.00;;;;9939113;29;20207;-81
2021/08/14 10:01:47;;;;;;;9.80;4.35;;;;;28.50;101640.00;;;;9914393;29;20242;-81
2021/08/14 10:06:49;;;;;;;8.02;4.10;;;;;28.40;101638.00;;;;9880090;29;20226;-81
2021/08/14 10:11:52;;;;;;;11.10;4.43;;;;;28.80;101636.00;;;;9900988;29;20309;-81
2021/08/14 10:16:54;;;;;;;8.98;4.43;;;;;29.30;101632.00;;;;9870602;29;20221;-80
2021/08/14 10:21:57;;;;;;;6.97;3.72;;;;;29.10;101639.00;;;;9882303;29;20231;-82
2021/08/14 10:27:07;;;;;;;8.20;3.63;;;;;29.20;101641.00;;;;9870372;29;20211;-82
2021/08/14 10:32:09;;;;;;;7.97;3.22;;;;;29.50;101640.00;;;;9887881;29;20215;-83
2021/08/14 10:37:31;;;;;;;11.32;4.10;;;;;29.70;101633.00;;;;9893306;29;20302;-82
2021/08/14 10:42:54;;;;;;;8.18;4.15;;;;;30.20;101629.00;;;;9874508;29;20226;-83
2021/08/14 10:48:02;;;;;;;10.00;4.47;;;;;29.90;101627.00;;;;9880853;29;20208;-83
2021/08/14 10:53:11;;;;;;;7.00;3.67;;;;;30.00;101622.00;;;;9864981;30;20212;-82
2021/08/14 10:58:38;;;;;;;9.00;4.15;;;;;29.60;101613.00;;;;9893515;29;20219;-82
2021/08/14 11:03:40;;;;;;;7.88;4.40;;;;;30.00;101608.00;;;;9886099;29;20238;-82
2021/08/14 11:08:42;;;;;;;8.20;4.60;;;;;30.40;101599.00;;;;9903258;29;20218;-82
2021/08/14 11:13:44;;;;;;;8.10;4.32;;;;;30.30;101599.00;;;;9887377;29;20226;-82
2021/08/14 11:18:51;;;;;;;9.18;4.43;;;;;30.30;101605.00;;;;9919280;29;20238;-82
2021/08/14 11:23:58;;;;;;;12.80;4.80;;;;;30.50;101606.00;;;;9888004;30;20224;-82
2021/08/14 11:29:01;;;;;;;9.50;4.15;;;;;30.70;101608.00;;;;9880787;29;20208;-82
2021/08/14 11:34:13;;;;;;;9.55;4.50;;;;;30.30;101596.00;;;;9851646;29;20221;-82
2021/08/14 11:39:15;;;;;;;11.20;4.25;;;;;30.30;101579.00;;;;9870279;29;20235;-82
2021/08/14 11:44:19;;;;;;;8.77;4.97;;;;;29.20;101614.00;;;;9904933;29;20235;-81
2021/08/14 11:49:21;;;;;;;9.70;4.05;;;;;29.40;101599.00;;;;9878431;29;20219;-81
2021/08/14 11:54:28;;;;;;;10.70;4.63;;;;;29.50;101596.00;;;;9889239;30;20625;-81
2021/08/14 11:59:31;;;;;;;11.63;4.72;;;;;29.80;101587.00;;;;9890510;29;20219;-82
2021/08/14 12:04:33;;;;;;;9.02;4.50;;;;;28.50;101590.00;;;;9874503;29;20231;-82
2021/08/14 12:09:35;;;;;;;12.30;5.18;;;;;28.10;101575.00;;;;9883901;30;20208;-82
2021/08/14 12:14:42;;;;;;;9.05;5.22;;;;;28.80;101580.00;;;;9902045;30;20204;-82
2021/08/14 12:19:49;;;;;;;10.38;5.63;;;;;29.40;101581.00;;;;9902124;29;20214;-83
2021/08/14 12:24:51;;;;;;;8.57;4.88;;;;;29.80;101566.00;;;;9875017;29;20242;-82
2021/08/14 12:29:55;;;;;;;11.00;4.97;;;;;28.90;101577.00;;;;9940687;29;20548;-82
2021/08/14 12:35:16;;;;;;;9.80;5.47;;;;;28.70;101572.00;;;;9925240;29;20207;-82
2021/08/14 12:40:22;;;;;;;9.30;4.50;;;;;29.10;101561.00;;;;9934159;29;20214;-82
2021/08/14 12:45:24;;;;;;;9.00;4.80;;;;;29.50;101566.00;;;;9941836;29;20227;-81
2021/08/14 12:50:32;;;;;;;12.60;5.47;;;;;30.00;101571.00;;;;9934878;29;20207;-82
2021/08/14 12:55:46;;;;;;;9.25;5.28;;;;;30.50;101568.00;;;;9933125;29;20241;-82
2021/08/14 13:00:50;;;;;;;9.95;5.20;;;;;30.40;101566.00;;;;9913307;29;20264;-82
2021/08/14 13:05:52;;;;;;;10.70;5.10;;;;;30.60;101556.00;;;;9886628;29;20231;-82
2021/08/14 13:10:53;;;;;;;10.90;4.75;;;;;30.50;101556.00;;;;9903359;29;20222;-82
2021/08/14 13:15:55;;;;;;;9.23;4.82;;;;;30.30;101554.00;;;;9901927;29;20211;-81
2021/08/14 13:21:00;;;;;;;9.27;5.05;;;;;30.90;101551.00;;;;9885081;29;20206;-81
2021/08/14 13:26:02;;;;;;;10.25;5.35;;;;;29.40;101556.00;;;;9917913;29;20618;-81
2021/08/14 13:31:04;;;;;;;11.13;4.97;;;;;29.10;101540.00;;;;9865432;29;20218;-81
2021/08/14 13:36:06;;;;;;;9.88;5.10;;;;;29.20;101546.00;;;;9894147;29;20228;-81
2021/08/14 13:41:08;;;;;;;12.73;5.15;;;;;29.70;101540.00;;;;9879550;29;20227;-81
2021/08/14 13:46:10;;;;;;;10.73;4.45;;;;;29.50;101542.00;;;;9878479;29;20699;-80
2021/08/14 13:51:13;;;;;;;9.80;5.13;;;;;29.40;101541.00;;;;9873547;30;20556;-81
2021/08/14 13:56:15;;;;;;;9.93;4.80;;;;;29.70;101530.00;;;;9884348;29;20723;-80
2021/08/14 14:01:17;;;;;;;9.82;3.85;;;;;30.00;101527.00;;;;9880461;29;20211;-81
2021/08/14 14:06:19;;;;;;;8.43;5.20;;;;;30.50;101531.00;;;;9895111;29;20230;-81
2021/08/14 14:11:22;;;;;;;11.60;5.00;;;;;31.10;101528.00;;;;9900470;29;20275;-82
2021/08/14 14:16:24;;;;;;;8.70;4.38;;;;;31.50;101530.00;;;;9913611;29;20253;-82
2021/08/14 14:21:26;;;;;;;7.20;3.80;;;;;32.40;101520.00;;;;9937639;29;20199;-81
2021/08/14 14:26:28;;;;;;;10.77;4.60;;;;;33.90;101520.00;;;;9862094;29;20231;-81
2021/08/14 14:31:30;;;;;;;8.30;4.13;;;;;35.90;101521.00;;;;9881434;29;20219;-82
2021/08/14 14:36:32;;;;;;;9.63;4.22;;;;;35.40;101541.00;;;;9883342;29;20635;-81
2021/08/14 14:41:36;;;;;;;11.32;4.35;;;;;36.10;101520.00;;;;9906686;29;20211;-82
2021/08/14 14:46:38;;;;;;;7.57;4.10;;;;;35.00;101522.00;;;;9885215;29;20711;-81
2021/08/14 14:51:40;;;;;;;7.53;4.07;;;;;35.30;101508.00;;;;9885411;29;20208;-80
2021/08/14 14:56:42;;;;;;;9.50;4.40;;;;;36.00;101507.00;;;;9914271;29;21042;-81
2021/08/14 15:01:44;;;;;;;9.07;4.63;;;;;36.40;101496.00;;;;9899997;29;20208;-81
2021/08/14 15:06:48;;;;;;;5.60;3.55;;;;;36.60;101507.00;;;;9900975;29;20272;-81
2021/08/14 15:11:53;;;;;;;10.70;4.25;;;;;37.70;101493.00;;;;9878315;29;20226;-82
2021/08/14 15:16:55;;;;;;;8.32;3.92;;;;;36.80;101499.00;;;;9870214;29;20219;-81
2021/08/14 15:22:00;;;;;;;9.25;4.22;;;;;30.40;101508.00;;;;9884585;29;20208;-81
2021/08/14 15:27:03;;;;;;;5.90;3.47;;;;;27.90;101496.00;;;;9898278;29;20223;-81
2021/08/14 15:32:05;;;;;;;7.93;3.53;;;;;28.80;101477.00;;;;9912250;29;20237;-80
2021/08/14 15:37:09;;;;;;;9.40;3.78;;;;;27.60;101491.00;;;;9884353;29;20250;-81
2021/08/14 15:42:12;;;;;;;6.90;3.47;;;;;26.50;101487.00;;;;9900008;29;20228;-80
2021/08/14 15:47:15;;;;;;;7.68;3.35;;;;;26.40;101487.00;;;;9883307;29;20759;-79
2021/08/14 15:52:17;;;;;;;8.30;3.55;;;;;26.20;101482.00;;;;9900317;29;20220;-80
2021/08/14 15:57:19;;;;;;;7.93;3.90;;;;;25.80;101488.00;;;;9881355;29;20242;-80
2021/08/14 16:02:21;;;;;;;5.25;3.22;;;;;25.50;101482.00;;;;9914593;29;20249;-81
2021/08/14 16:07:23;;;;;;;8.90;3.60;;;;;25.40;101478.00;;;;9883502;29;20256;-81
2021/08/14 16:12:24;;;;;;;8.30;3.10;;;;;25.40;101473.00;;;;9911609;29;20223;-80
2021/08/14 16:17:30;;;;;;;5.65;3.17;;;;;25.30;101464.00;;;;9897812;29;20208;-81
2021/08/14 16:22:32;;;;;;;9.20;3.75;;;;;25.10;101468.00;;;;9901443;29;20227;-80
2021/08/14 16:27:34;;;;;;;10.13;3.88;;;;;25.00;101456.00;;;;9899329;29;20216;-80
2021/08/14 16:32:36;;;;;;;8.68;3.38;;;;;25.00;101449.00;;;;9884449;29;20223;-80
2021/08/14 16:37:38;;;;;;;8.70;3.97;;;;;24.70;101445.00;;;;9857474;29;20242;-80
2021/08/14 16:42:40;;;;;;;9.80;3.97;;;;;24.60;101447.00;;;;9861773;30;20265;-81
2021/08/14 16:47:43;;;;;;;6.03;3.50;;;;;24.60;101437.00;;;;9852173;30;20221;-80
2021/08/14 16:52:45;;;;;;;8.52;3.65;;;;;24.50;101427.00;;;;9898616;29;20211;-79
2021/08/14 16:57:47;;;;;;;6.10;3.38;;;;;24.50;101431.00;;;;9886785;29;20222;-80
2021/08/14 17:02:49;;;;;;;8.23;3.38;;;;;24.40;101425.00;;;;9878960;29;20289;-80
2021/08/14 17:07:53;;;;;;;8.00;3.33;;;;;24.20;101428.00;;;;9871613;29;20656;-80
2021/08/14 17:12:55;;;;;;;11.40;3.80;;;;;24.20;101416.00;;;;9850666;30;20216;-79
2021/08/14 17:17:57;;;;;;;6.18;3.17;;;;;24.10;101411.00;;;;9863447;29;20217;-80
2021/08/14 17:23:01;;;;;;;5.38;3.65;;;;;24.10;101405.00;;;;9889795;29;20230;-80
2021/08/14 17:28:03;;;;;;;10.73;4.05;;;;;24.00;101408.00;;;;9892304;29;20679;-79
2021/08/14 17:33:06;;;;;;;5.72;3.60;;;;;24.00;101409.00;;;;9880887;29;20836;-79
2021/08/14 17:38:08;;;;;;;7.68;3.58;;;;;23.90;101413.00;;;;9893681;29;20234;-79
2021/08/14 17:43:09;;;;;;;11.85;3.42;;;;;23.80;101399.00;;;;9900363;29;20230;-80
2021/08/14 17:48:11;;;;;;;7.05;3.20;;;;;23.70;101398.00;;;;9889098;29;20199;-79
2021/08/14 17:53:13;;;;;;;8.88;3.97;;;;;23.60;101389.00;;;;9919549;29;20300;-79
2021/08/14 17:58:16;;;;;;;6.88;3.65;;;;;23.60;101390.00;;;;9909311;29;20207;-79
2021/08/14 18:03:19;;;;;;;8.07;3.72;;;;;23.60;101384.00;;;;9895971;29;20219;-79
2021/08/14 18:08:21;;;;;;;9.52;4.32;;;;;23.40;101378.00;;;;9909988;29;20676;-79
2021/08/14 18:13:23;;;;;;;6.78;3.58;;;;;23.20;101375.00;;;;9894450;29;20652;-80
2021/08/14 18:18:25;;;;;;;7.00;3.70;;;;;23.10;101383.00;;;;9894730;29;20207;-79
2021/08/14 18:23:27;;;;;;;13.93;4.05;;;;;23.00;101379.00;;;;9893753;29;20318;-79
2021/08/14 18:28:29;;;;;;;7.22;3.95;;;;;22.70;101373.00;;;;9894475;29;20204;-80
2021/08/14 18:33:36;;;;;;;10.93;4.03;;;;;22.50;101377.00;;;;9892938;29;20764;-79
2021/08/14 18:38:39;;;;;;;9.68;3.88;;;;;22.20;101377.00;;;;9876865;29;20273;-79
2021/08/14 18:43:41;;;;;;;8.63;4.25;;;;;21.90;101365.00;;;;9877887;29;20692;-79
2021/08/14 18:48:43;;;;;;;9.75;4.78;;;;;21.60;101365.00;;;;9850344;29;20241;-79
2021/08/14 18:53:45;;;;;;;9.48;4.93;;;;;21.40;101371.00;;;;9911425;29;20210;-79
2021/08/14 18:58:47;;;;;;;11.32;4.60;;;;;21.20;101373.00;;;;9886693;29;20657;-80
2021/08/14 19:03:48;;;;;;;13.00;4.70;;;;;21.00;101374.00;;;;9886336;29;20732;-80
2021/08/14 19:08:50;;;;;;;12.48;5.28;;;;;20.80;101382.00;;;;9885998;29;20204;-79
2021/08/14 19:13:52;;;;;;;10.43;5.20;;;;;20.70;101376.00;;;;9885241;29;20215;-80
2021/08/14 19:18:54;;;;;;;9.20;5.15;;;;;20.50;101391.00;;;;9914249;29;20545;-80
2021/08/14 19:23:56;;;;;;;8.55;5.47;;;;;20.40;101390.00;;;;9873321;29;20232;-79
2021/08/14 19:28:59;;;;;;;9.05;5.25;;;;;20.20;101392.00;;;;9874772;30;20204;-79
2021/08/14 19:34:01;;;;;;;7.68;5.45;;;;;20.10;101393.00;;;;9862358;30;20212;-79
2021/08/14 19:39:03;;;;;;;10.93;5.95;;;;;20.00;101405.00;;;;9861603;30;20228;-79
2021/08/14 19:44:08;;;;;;;8.23;5.60;;;;;19.90;101402.00;;;;9861812;30;20236;-78
2021/08/14 19:49:10;;;;;;;12.77;5.47;;;;;19.80;101400.00;;;;9875521;30;20219;-80
2021/08/14 19:54:12;;;;;;;11.18;5.45;;;;;19.70;101391.00;;;;9848137;30;20212;-79
2021/08/14 19:59:35;;;;;;;9.10;5.05;;;;;19.50;101391.00;;;;9865399;30;20211;-80
2021/08/14 20:04:37;;;;;;;8.63;4.93;;;;;19.40;101391.00;;;;9882545;29;20245;-79
2021/08/14 20:09:39;;;;;;;7.90;5.03;;;;;19.30;101382.00;;;;9883097;29;20199;-80
2021/08/14 20:14:44;;;;;;;12.75;5.47;;;;;19.10;101379.00;;;;9882491;29;20211;-80
2021/08/14 20:19:46;;;;;;;10.90;5.78;;;;;19.00;101382.00;;;;9883130;29;21026;-79
2021/08/14 20:24:48;;;;;;;10.80;5.22;;;;;18.90;101387.00;;;;9897120;29;20227;-79
2021/08/14 20:29:51;;;;;;;6.38;5.18;;;;;18.80;101378.00;;;;9853479;29;20219;-80
2021/08/14 20:34:53;;;;;;;10.50;5.00;;;;;18.70;101383.00;;;;9881745;29;20948;-79
2021/08/14 20:39:54;;;;;;;15.75;6.20;;;;;18.60;101382.00;;;;9881936;29;20211;-80
2021/08/14 20:44:57;;;;;;;13.18;5.43;;;;;18.60;101378.00;;;;9881562;29;20223;-79
2021/08/14 20:49:59;;;;;;;11.25;6.50;;;;;18.50;101382.00;;;;9882494;29;20214;-79
2021/08/14 20:55:01;;;;;;;10.75;7.78;;;;;18.40;101372.00;;;;9852782;29;20219;-78
2021/08/14 21:00:04;;;;;;;13.00;6.78;;;;;18.30;101374.00;;;;9881250;29;20204;-79
2021/08/14 21:05:10;;;;;;;9.70;6.05;;;;;18.30;101382.00;;;;9897369;29;20362;-79
2021/08/14 21:10:12;;;;;;;14.75;6.85;;;;;18.20;101383.00;;;;9881110;29;20215;-79
2021/08/14 21:15:13;;;;;;;11.68;5.88;;;;;18.10;101375.00;;;;9881866;29;20207;-79
2021/08/14 21:20:16;;;;;;;12.38;7.03;;;;;18.00;101376.00;;;;9911026;29;20219;-79
2021/08/14 21:25:18;;;;;;;13.60;6.18;;;;;17.90;101372.00;;;;9907721;29;20300;-79
2021/08/14 21:30:20;;;;;;;11.02;7.43;;;;;17.90;101368.00;;;;9894959;29;20286;-80
2021/08/14 21:35:22;;;;;;;15.90;6.93;;;;;17.80;101363.00;;;;9896099;29;20230;-78
2021/08/14 21:40:24;;;;;;;14.95;7.78;;;;;17.70;101365.00;;;;9912642;29;20264;-79
2021/08/14 21:45:26;;;;;;;9.25;6.97;;;;;17.70;101357.00;;;;9882674;29;20231;-79
2021/08/14 21:50:28;;;;;;;14.30;7.53;;;;;17.60;101352.00;;;;9868205;29;20211;-79
2021/08/14 21:55:30;;;;;;;9.38;6.80;;;;;17.50;101357.00;;;;9885368;29;20252;-79
2021/08/14 22:00:34;;;;;;;15.05;7.05;;;;;17.40;101346.00;;;;9882473;29;20207;-79
2021/08/14 22:05:42;;;;;;;18.83;7.13;;;;;17.30;101345.00;;;;9867551;29;20236;-79
2021/08/14 22:10:45;;;;;;;14.80;7.00;;;;;17.20;101328.00;;;;9867749;29;20683;-79
2021/08/14 22:15:47;;;;;;;13.87;7.73;;;;;17.20;101330.00;;;;9896512;29;20213;-79
2021/08/14 22:20:49;;;;;;;13.93;6.90;;;;;17.20;101329.00;;;;9866874;29;20218;-78
2021/08/14 22:25:51;;;;;;;14.37;7.87;;;;;17.10;101315.00;;;;9881407;29;20246;-79
2021/08/14 22:30:53;;;;;;;10.70;7.60;;;;;17.10;101321.00;;;;9872238;29;20216;-79
2021/08/14 22:35:55;;;;;;;8.13;6.97;;;;;17.00;101315.00;;;;9903107;29;20250;-79
2021/08/14 22:40:57;;;;;;;10.30;7.43;;;;;16.90;101313.00;;;;9888760;29;20314;-79
2021/08/14 22:45:59;;;;;;;13.63;7.67;;;;;16.80;101310.00;;;;9868735;29;20238;-79
2021/08/14 22:51:01;;;;;;;15.43;8.10;;;;;16.80;101306.00;;;;9836351;30;20219;-80
2021/08/14 22:56:05;;;;;;;11.77;8.30;;;;;16.70;101302.00;;;;9879046;29;20224;-79
2021/08/14 23:01:07;;;;;;;11.53;8.37;;;;;16.70;101306.00;;;;9873751;29;20212;-79
2021/08/14 23:06:09;;;;;;;12.33;8.43;;;;;16.60;101305.00;;;;9858793;29;20235;-79
2021/08/14 23:11:11;;;;;;;13.07;7.90;;;;;16.50;101302.00;;;;9888173;29;20215;-78
2021/08/14 23:16:13;;;;;;;12.97;8.70;;;;;16.40;101291.00;;;;9872951;29;20265;-79
2021/08/14 23:21:15;;;;;;;13.17;9.57;;;;;16.40;101289.00;;;;9902749;29;20255;-79
2021/08/14 23:26:17;;;;;;;11.50;8.87;;;;;16.40;101280.00;;;;9914923;29;20283;-79
2021/08/14 23:31:19;;;;;;;13.07;8.83;;;;;16.30;101275.00;;;;9915406;29;20211;-78
2021/08/14 23:36:21;;;;;;;16.17;8.60;;;;;16.30;101271.00;;;;9872240;29;20231;-79
2021/08/14 23:41:23;;;;;;;11.63;7.27;;;;;16.30;101277.00;;;;9872518;29;20211;-79
2021/08/14 23:46:25;;;;;;;16.77;6.90;;;;;16.30;101266.00;;;;9856783;29;20254;-79
2021/08/14 23:51:27;;;;;;;13.80;6.90;;;;;16.30;101257.00;;;;9856882;29;20299;-79
2021/08/14 23:56:28;;;;;;;14.63;6.30;;;;;16.40;101256.00;;;;9901788;29;20222;-79
